Time;durP1;ratioP1;P1;durP2;ratioP2;P2;SDS_P1;SDS_P2;PMS_P1;PMS_P2;Temp;Humidity;BMP_temperature;BMP_pressure;BME280_temperature;BME280_humidity;BME280_pressure;Samples;Min_cycle;Max_cycle;Signal;HPM_P1;HPM_P2
2023/03/06 00:02:23;;;;;;;65.68;38.28;;;;;;;;;;5051960;28;20029;-79
2023/03/06 00:04:49;;;;;;;56.75;34.67;;;;;;;;;;5039543;28;20037;-79
2023/03/06 00:07:15;;;;;;;53.55;33.80;;;;;;;;;;5048166;28;20036;-77
2023/03/06 00:09:41;;;;;;;54.08;33.83;;;;;;;;;;5035457;28;20080;-77
2023/03/06 00:12:07;;;;;;;57.05;33.88;;;;;;;;;;5052251;28;20036;-76
2023/03/06 00:14:34;;;;;;;55.67;35.35;;;;;;;;;;5041292;28;20026;-76
2023/03/06 00:17:00;;;;;;;67.57;38.78;;;;;;;;;;5047623;28;20071;-77
2023/03/06 00:19:26;;;;;;;83.32;46.75;;;102.80;2227.20;;;;;;5036961;28;20029;-76
2023/03/06 00:21:53;;;;;;;80.28;44.75;;;102.70;2227.20;;;;;;5048418;28;20466;-76
2023/03/06 00:24:19;;;;;;;79.38;46.03;;;102.70;2227.20;;;;;;5040583;28;20102;-77
2023/03/06 00:26:44;;;;;;;89.50;51.83;;;102.70;2227.20;;;;;;5040142;28;20056;-78
2023/03/06 00:29:10;;;;;;;132.55;70.05;;;102.90;2227.20;;;;;;5047297;28;20466;-79
2023/03/06 00:31:36;;;;;;;123.15;61.67;;;102.80;2227.20;;;;;;5048416;28;20440;-77
2023/03/06 00:34:02;;;;;;;119.07;65.25;;;102.90;2227.20;;;;;;5033231;28;20026;-78
2023/03/06 00:36:28;;;;;;;89.45;53.63;;;103.10;2227.20;;;;;;5032229;28;20374;-79
2023/03/06 00:38:54;;;;;;;145.02;77.82;;;102.90;2227.20;;;;;;5032346;28;20021;-79
2023/03/06 00:41:20;;;;;;;111.13;64.88;;;102.70;2227.20;;;;;;5031905;28;20029;-79
2023/03/06 00:43:46;;;;;;;118.05;73.90;;;102.80;2227.20;;;;;;5032211;28;20057;-74
2023/03/06 00:46:11;;;;;;;130.98;73.40;;;102.40;2227.20;;;;;;5035579;28;20059;-79
2023/03/06 00:48:37;;;;;;;129.32;68.55;;;102.60;2227.20;;;;;;5053473;28;20025;-80
2023/03/06 00:51:03;;;;;;;92.82;53.17;;;102.40;2227.20;;;;;;5052375;28;20036;-76
2023/03/06 00:53:29;;;;;;;113.90;66.68;;;102.70;2227.20;;;;;;5052067;28;20048;-77
2023/03/06 00:55:54;;;;;;;120.07;70.78;;;102.60;2227.20;;;;;;5052080;28;20074;-76
2023/03/06 00:58:20;;;;;;;129.48;73.15;;;102.40;2227.20;;;;;;5051795;28;20119;-79
2023/03/06 01:00:46;;;;;;;150.13;76.35;;;102.60;2227.20;;;;;;5053151;28;20021;-76
2023/03/06 01:03:12;;;;;;;168.73;89.68;;;102.60;2227.20;;;;;;5052901;28;20026;-77
2023/03/06 01:05:38;;;;;;;140.27;76.97;;;102.50;2227.20;;;;;;5052064;28;20021;-76
2023/03/06 01:08:05;;;;;;;94.90;53.90;;;102.50;2227.20;;;;;;5053242;28;20371;-78
2023/03/06 01:10:31;;;;;;;87.88;51.60;;;102.50;2227.20;;;;;;5051675;28;20031;-78
2023/03/06 01:12:57;;;;;;;75.25;41.47;;;102.50;2227.20;;;;;;5052855;28;20387;-78
2023/03/06 01:15:23;;;;;;;52.65;33.13;;;102.40;2227.20;;;;;;5052055;28;20117;-78
2023/03/06 01:17:52;;;;;;;62.53;34.75;;;102.50;2227.20;;;;;;5051738;28;20119;-82
2023/03/06 01:20:18;;;;;;;44.65;27.25;;;102.80;2227.20;;;;;;5053231;28;20454;-78
2023/03/06 01:22:44;;;;;;;37.03;24.30;;;102.50;2227.20;;;;;;5051901;28;20035;-78
2023/03/06 01:25:10;;;;;;;50.28;28.80;;;102.60;2227.20;;;;;;5051654;28;20072;-78
2023/03/06 01:27:36;;;;;;;54.58;32.90;;;102.60;2227.20;;;;;;5046786;28;20030;-79
2023/03/06 01:30:02;;;;;;;61.15;35.47;;;102.70;2227.20;;;;;;5032139;28;20025;-77
2023/03/06 01:32:29;;;;;;;46.50;29.58;;;102.60;2227.20;;;;;;5031712;28;20501;-73
2023/03/06 01:34:55;;;;;;;42.78;25.90;;;102.80;2227.20;;;;;;5062849;28;20549;-76
2023/03/06 01:37:20;;;;;;;41.63;25.45;;;102.80;2227.20;;;;;;5051483;28;20029;-79
2023/03/06 01:39:46;;;;;;;40.75;25.25;;;102.40;2227.20;;;;;;5051650;28;20115;-81
2023/03/06 01:42:12;;;;;;;39.05;25.48;;;102.40;2227.20;;;;;;5051526;28;20115;-78
2023/03/06 01:45:17;;;;;;;44.97;24.85;;;77.60;2227.20;;;;;;5054767;28;20082;-79
2023/03/06 01:47:43;;;;;;;52.63;27.13;;;77.70;2227.20;;;;;;5034153;28;20048;-78
2023/03/06 01:50:11;;;;;;;52.63;28.92;;;102.50;2227.20;;;;;;5055115;28;20057;-78
2023/03/06 01:52:53;;;;;;;49.95;28.77;;;77.70;2227.20;;;;;;5054867;28;20531;-78
2023/03/06 01:55:30;;;;;;;49.03;28.85;;;102.40;2227.20;;;;;;5055320;28;20368;-78
2023/03/06 01:58:00;;;;;;;46.45;27.98;;;77.50;2227.20;;;;;;5054975;28;20025;-79
2023/03/06 02:00:28;;;;;;;44.90;27.65;;;77.40;2227.20;;;;;;5055157;28;20139;-79
2023/03/06 02:03:05;;;;;;;50.67;29.42;;;77.30;2227.20;;;;;;5056030;28;20028;-80
2023/03/06 02:05:32;;;;;;;69.43;33.50;;;77.30;2227.20;;;;;;5054884;28;20056;-81
2023/03/06 02:07:58;;;;;;;71.78;31.98;;;77.00;2227.20;;;;;;5054751;28;20060;-80
2023/03/06 02:10:24;;;;;;;46.10;25.65;;;77.30;2227.20;;;;;;5055032;28;20029;-78
2023/03/06 02:12:50;;;;;;;46.88;26.23;;;77.30;2227.20;;;;;;5054650;28;20044;-80
2023/03/06 02:15:20;;;;;;;48.45;29.35;;;77.20;2227.20;;;;;;5054942;28;20484;-79
2023/03/06 02:17:48;;;;;;;49.15;27.65;;;77.20;2227.20;;;;;;5055799;28;20025;-79
2023/03/06 02:20:29;;;;;;;41.58;24.52;;;77.20;2227.20;;;;;;5054753;28;20025;-77
2023/03/06 02:23:07;;;;;;;40.70;25.83;;;77.40;2227.20;;;;;;5054843;28;20363;-80
2023/03/06 02:25:42;;;;;;;44.22;27.00;;;77.40;2227.20;;;;;;5054888;28;20025;-79
2023/03/06 02:28:14;;;;;;;47.47;26.17;;;77.00;2227.20;;;;;;5064552;28;20071;-77
2023/03/06 02:30:42;;;;;;;50.92;28.15;;;77.00;2227.20;;;;;;5078285;28;20017;-75
2023/03/06 02:33:14;;;;;;;45.53;26.25;;;77.10;2227.20;;;;;;5077846;28;20037;-77
2023/03/06 02:35:45;;;;;;;41.30;24.70;;;77.10;2227.20;;;;;;5060712;28;20064;-77
2023/03/06 02:38:14;;;;;;;45.88;26.10;;;77.20;2227.20;;;;;;5054676;28;20025;-81
2023/03/06 02:40:46;;;;;;;40.25;25.00;;;77.20;2227.20;;;;;;5054273;28;20033;-76
2023/03/06 02:43:15;;;;;;;33.45;23.40;;;77.30;2227.20;;;;;;5055544;28;20402;-79
2023/03/06 02:45:47;;;;;;;44.85;26.33;;;77.40;2227.20;;;;;;5054307;28;20029;-77
2023/03/06 02:48:15;;;;;;;37.00;23.23;;;77.10;2227.20;;;;;;5053897;28;20474;-78
2023/03/06 02:50:43;;;;;;;36.63;23.25;;;77.00;2227.20;;;;;;5052835;28;20028;-79
2023/03/06 02:53:10;;;;;;;36.10;23.17;;;76.90;2227.20;;;;;;5053757;28;20028;-76
2023/03/06 02:55:36;;;;;;;35.92;22.38;;;76.90;2227.20;;;;;;5051837;28;20029;-77
2023/03/06 02:58:03;;;;;;;40.17;23.77;;;77.10;2227.20;;;;;;5054896;28;20048;-77
2023/03/06 03:00:29;;;;;;;37.35;21.77;;;76.90;2227.20;;;;;;5055297;28;20025;-77
2023/03/06 03:02:55;;;;;;;35.50;22.33;;;77.00;2227.20;;;;;;5053577;28;20075;-78
2023/03/06 03:05:21;;;;;;;37.83;22.38;;;77.00;2227.20;;;;;;5053844;28;20025;-77
2023/03/06 03:07:47;;;;;;;36.85;21.85;;;77.00;2227.20;;;;;;5053658;28;20111;-77
2023/03/06 03:10:13;;;;;;;36.40;22.80;;;77.10;2227.20;;;;;;5053445;28;20032;-77
2023/03/06 03:12:39;;;;;;;37.70;23.83;;;77.00;2227.20;;;;;;5053701;28;20036;-77
2023/03/06 03:15:06;;;;;;;34.17;22.23;;;77.00;2227.20;;;;;;5053408;28;20052;-76
2023/03/06 03:17:34;;;;;;;33.30;21.73;;;76.90;2227.20;;;;;;5053594;28;20758;-79
2023/03/06 03:20:00;;;;;;;34.50;22.67;;;77.10;2227.20;;;;;;5053477;28;20032;-76
2023/03/06 03:22:26;;;;;;;35.40;21.55;;;77.10;2227.20;;;;;;5053135;28;20036;-75
2023/03/06 03:24:51;;;;;;;38.78;23.70;;;77.10;2227.20;;;;;;5055044;28;20029;-76
2023/03/06 03:27:17;;;;;;;36.15;24.55;;;77.20;2227.20;;;;;;5053359;28;20025;-78
2023/03/06 03:29:43;;;;;;;36.28;23.13;;;77.10;2227.20;;;;;;5053121;28;20102;-79
2023/03/06 03:32:08;;;;;;;44.15;27.13;;;77.20;2227.20;;;;;;5053338;28;20493;-75
2023/03/06 03:34:34;;;;;;;48.75;31.80;;;77.20;2227.20;;;;;;5053641;28;20025;-78
2023/03/06 03:37:00;;;;;;;47.70;30.17;;;77.10;2227.20;;;;;;5054486;28;20405;-79
2023/03/06 03:39:26;;;;;;;36.33;23.73;;;77.00;2227.20;;;;;;5053200;28;20430;-77
2023/03/06 03:41:51;;;;;;;44.60;26.13;;;77.10;2227.20;;;;;;5053116;28;20071;-77
2023/03/06 03:44:17;;;;;;;44.83;29.48;;;77.20;2227.20;;;;;;5052777;28;20123;-75
2023/03/06 03:46:43;;;;;;;51.03;30.75;;;77.20;2227.20;;;;;;5054001;28;20056;-77
2023/03/06 03:49:09;;;;;;;50.13;32.17;;;77.20;2227.20;;;;;;5054054;28;20025;-77
2023/03/06 03:51:34;;;;;;;45.75;26.35;;;77.20;2227.20;;;;;;5052708;28;20528;-75
2023/03/06 03:54:00;;;;;;;45.88;26.70;;;77.20;2227.20;;;;;;5052907;28;20428;-76
2023/03/06 03:56:26;;;;;;;44.53;26.25;;;77.20;2227.20;;;;;;5052882;28;20055;-77
2023/03/06 03:58:52;;;;;;;62.70;33.50;;;77.40;2227.20;;;;;;5053769;28;20438;-77
2023/03/06 04:01:18;;;;;;;107.93;54.95;;;77.20;2227.20;;;;;;5052653;28;20120;-74
2023/03/06 04:03:44;;;;;;;133.68;68.07;;;77.20;2227.20;;;;;;5052690;28;20115;-77
2023/03/06 04:06:10;;;;;;;132.13;68.25;;;77.00;2227.20;;;;;;5052201;28;20024;-77
2023/03/06 04:08:36;;;;;;;91.25;52.30;;;77.00;2227.20;;;;;;5053676;28;20049;-75
2023/03/06 04:11:02;;;;;;;66.45;38.58;;;76.90;2227.20;;;;;;5052316;28;20036;-77
2023/03/06 04:13:28;;;;;;;48.75;30.92;;;77.00;2227.20;;;;;;5053792;28;20025;-76
2023/03/06 04:15:54;;;;;;;52.60;33.33;;;52.10;2227.20;;;;;;5052574;28;20124;-78
2023/03/06 04:18:22;;;;;;;48.47;29.63;;;52.00;2227.20;;;;;;5053162;28;20040;-76
2023/03/06 04:20:48;;;;;;;48.97;31.65;;;51.80;2227.20;;;;;;5052490;28;20025;-77
2023/03/06 04:23:15;;;;;;;45.25;27.10;;;52.00;2227.20;;;;;;5052235;28;20470;-76
2023/03/06 04:25:41;;;;;;;59.03;37.78;;;51.90;2227.20;;;;;;5052098;28;20143;-75
2023/03/06 04:28:07;;;;;;;54.08;34.45;;;52.00;2227.20;;;;;;5052378;28;20047;-78
2023/03/06 04:30:33;;;;;;;46.03;29.13;;;51.90;2227.20;;;;;;5053594;28;20047;-77
2023/03/06 04:32:59;;;;;;;57.88;37.15;;;51.80;2227.20;;;;;;5053489;28;20033;-79
2023/03/06 04:35:25;;;;;;;52.15;34.08;;;51.80;2227.20;;;;;;5052243;28;20028;-78
2023/03/06 04:37:51;;;;;;;57.63;33.75;;;51.80;2227.20;;;;;;5053475;28;20083;-79
2023/03/06 04:40:26;;;;;;;68.97;44.92;;;51.90;2227.20;;;;;;5052025;28;20363;-77
2023/03/06 04:42:51;;;;;;;62.08;35.35;;;52.00;2227.20;;;;;;5052172;28;20529;-77
2023/03/06 04:45:17;;;;;;;71.63;43.55;;;52.10;2227.20;;;;;;5052254;28;20025;-76
2023/03/06 04:47:43;;;;;;;79.93;45.75;;;51.90;2227.20;;;;;;5051853;28;20473;-77
2023/03/06 04:50:09;;;;;;;77.93;47.67;;;51.90;2227.20;;;;;;5052391;28;20082;-75
2023/03/06 04:52:35;;;;;;;61.17;37.60;;;51.80;2227.20;;;;;;5051455;28;20061;-77
2023/03/06 04:55:07;;;;;;;50.45;33.30;;;52.00;2227.20;;;;;;5051886;28;20025;-78
2023/03/06 04:57:36;;;;;;;36.03;23.35;;;52.10;2227.20;;;;;;5052105;28;20031;-78
2023/03/06 05:00:05;;;;;;;33.67;21.02;;;52.00;2227.20;;;;;;5050639;28;20033;-78
2023/03/06 05:02:32;;;;;;;66.00;35.65;;;52.00;2227.20;;;;;;5051119;28;20466;-77
2023/03/06 05:04:57;;;;;;;84.95;49.60;;;76.80;2227.20;;;;;;5052730;28;20132;-76
2023/03/06 05:07:23;;;;;;;103.32;57.88;;;52.10;2227.20;;;;;;5051699;28;20494;-76
2023/03/06 05:09:49;;;;;;;111.88;61.42;;;76.90;2227.20;;;;;;5051772;28;20045;-78
2023/03/06 05:12:14;;;;;;;88.78;53.78;;;76.80;2227.20;;;;;;5051893;28;20414;-75
2023/03/06 05:14:40;;;;;;;63.70;38.67;;;51.70;2227.20;;;;;;5052835;28;20082;-76
2023/03/06 05:17:06;;;;;;;49.85;32.70;;;51.70;2227.20;;;;;;5051922;28;20021;-75
2023/03/06 05:19:32;;;;;;;48.15;29.95;;;51.70;2227.20;;;;;;5055260;28;20083;-77
2023/03/06 05:21:58;;;;;;;52.58;30.95;;;51.80;2227.20;;;;;;5056824;28;20471;-76
2023/03/06 05:24:23;;;;;;;55.63;32.80;;;51.80;2227.20;;;;;;5057070;28;20433;-77
2023/03/06 05:26:49;;;;;;;87.03;41.28;;;51.80;2227.20;;;;;;5055819;28;20382;-79
2023/03/06 05:29:15;;;;;;;87.55;46.80;;;51.80;2227.20;;;;;;5055352;28;20029;-77
2023/03/06 05:31:40;;;;;;;94.82;51.15;;;51.90;2227.20;;;;;;5055658;28;20025;-76
2023/03/06 05:34:06;;;;;;;95.57;52.95;;;52.00;2227.20;;;;;;5056803;28;20025;-77
2023/03/06 05:36:32;;;;;;;118.88;60.08;;;52.10;2227.20;;;;;;5056369;28;20025;-76
2023/03/06 05:38:57;;;;;;;133.02;66.40;;;52.10;2227.20;;;;;;5055494;28;20025;-75
2023/03/06 05:41:23;;;;;;;121.10;60.20;;;52.00;2227.20;;;;;;5056256;28;20128;-75
2023/03/06 05:43:51;;;;;;;108.03;57.95;;;51.90;2227.20;;;;;;5055025;28;20041;-78
2023/03/06 05:46:17;;;;;;;96.50;45.55;;;51.90;2227.20;;;;;;5055380;28;20032;-75
2023/03/06 05:48:42;;;;;;;77.35;42.03;;;51.80;2227.20;;;;;;5055299;28;20033;-76
2023/03/06 05:51:09;;;;;;;73.53;43.95;;;51.90;2227.20;;;;;;5055089;28;20409;-75
2023/03/06 05:53:35;;;;;;;80.03;48.88;;;51.60;2227.20;;;;;;5055161;28;20029;-76
2023/03/06 05:56:07;;;;;;;84.05;47.67;;;51.90;2227.20;;;;;;5054925;28;20071;-75
2023/03/06 05:58:34;;;;;;;68.45;42.38;;;51.90;2227.20;;;;;;5055109;28;20294;-77
2023/03/06 06:01:07;;;;;;;61.53;35.28;;;51.50;2227.20;;;;;;5054787;28;20240;-76
2023/03/06 06:03:32;;;;;;;108.95;61.38;;;26.50;2201.60;;;;;;5053757;28;20033;-74
2023/03/06 06:05:58;;;;;;;140.02;75.15;;;26.50;2201.60;;;;;;5055010;28;20029;-76
2023/03/06 06:08:24;;;;;;;111.50;61.58;;;26.40;2201.60;;;;;;5055114;28;20048;-76
2023/03/06 06:10:49;;;;;;;100.45;60.58;;;51.40;2227.20;;;;;;5054614;28;20056;-76
2023/03/06 06:13:15;;;;;;;95.68;64.40;;;51.50;2227.20;;;;;;5055049;28;20051;-79
2023/03/06 06:15:41;;;;;;;99.72;61.67;;;51.40;2227.20;;;;;;5054911;28;20025;-77
2023/03/06 06:18:06;;;;;;;69.88;45.08;;;51.40;2227.20;;;;;;5055828;28;20032;-78
2023/03/06 06:20:32;;;;;;;76.93;45.63;;;51.20;2227.20;;;;;;5056007;28;20383;-77
2023/03/06 06:22:58;;;;;;;79.63;49.85;;;26.50;2201.60;;;;;;5054800;28;20382;-78
2023/03/06 06:25:23;;;;;;;89.88;53.20;;;51.20;2227.20;;;;;;5054172;28;20029;-77
2023/03/06 06:27:49;;;;;;;92.60;58.33;;;51.40;2227.20;;;;;;5048799;28;20037;-78
2023/03/06 06:30:15;;;;;;;101.80;61.38;;;51.60;2227.20;;;;;;5033909;28;20422;-79
2023/03/06 06:32:41;;;;;;;70.13;41.47;;;51.50;2227.20;;;;;;5034258;28;20092;-79
2023/03/06 06:35:07;;;;;;;67.60;42.45;;;51.50;2227.20;;;;;;5034545;28;20021;-77
2023/03/06 06:37:33;;;;;;;70.35;49.30;;;51.70;2227.20;;;;;;5034448;28;20032;-80
2023/03/06 06:39:58;;;;;;;73.97;44.72;;;51.80;2227.20;;;;;;5034098;28;20120;-78
2023/03/06 06:42:24;;;;;;;66.22;42.60;;;52.00;2227.20;;;;;;5034535;28;20039;-80
2023/03/06 06:44:50;;;;;;;69.88;44.30;;;51.70;2227.20;;;;;;5034393;28;20063;-77
2023/03/06 06:47:16;;;;;;;69.28;44.15;;;51.80;2227.20;;;;;;5034059;28;20498;-79
2023/03/06 06:49:41;;;;;;;66.35;44.05;;;51.80;2227.20;;;;;;5034186;28;20071;-77
2023/03/06 06:52:07;;;;;;;66.85;46.50;;;76.90;2227.20;;;;;;5033942;28;20033;-78
2023/03/06 06:54:33;;;;;;;86.93;47.85;;;76.80;2227.20;;;;;;5034150;28;20029;-77
2023/03/06 06:56:59;;;;;;;89.28;52.17;;;76.90;2227.20;;;;;;5034160;28;20029;-76
2023/03/06 06:59:25;;;;;;;90.40;51.70;;;77.00;2227.20;;;;;;5049527;28;20029;-77
2023/03/06 07:01:51;;;;;;;95.65;53.70;;;76.90;2227.20;;;;;;5054638;28;20039;-79
2023/03/06 07:04:18;;;;;;;79.22;46.13;;;77.10;2227.20;;;;;;5053294;28;20036;-78
2023/03/06 07:06:44;;;;;;;90.75;52.47;;;77.20;2227.20;;;;;;5055141;28;20025;-78
2023/03/06 07:09:10;;;;;;;78.15;42.38;;;77.00;2227.20;;;;;;5053801;28;20375;-76
2023/03/06 07:11:37;;;;;;;69.97;43.88;;;77.10;2227.20;;;;;;5053666;28;20033;-77
2023/03/06 07:14:02;;;;;;;61.45;43.75;;;77.10;2227.20;;;;;;5053429;28;20050;-79
2023/03/06 07:16:28;;;;;;;63.35;42.88;;;77.00;2227.20;;;;;;5053690;28;20064;-76
2023/03/06 07:18:54;;;;;;;53.40;35.45;;;77.20;2227.20;;;;;;5053613;28;20074;-79
2023/03/06 07:21:20;;;;;;;60.20;36.67;;;77.40;2227.20;;;;;;5053414;28;20087;-79
2023/03/06 07:23:45;;;;;;;61.10;38.20;;;77.50;2227.20;;;;;;5053565;28;20389;-77
2023/03/06 07:26:11;;;;;;;51.90;36.03;;;77.50;2227.20;;;;;;5053472;28;20029;-78
2023/03/06 07:28:37;;;;;;;65.15;42.92;;;77.60;2227.20;;;;;;5054509;28;20031;-77
2023/03/06 07:31:08;;;;;;;66.60;44.97;;;77.70;2227.20;;;;;;5053547;28;20032;-78
2023/03/06 07:33:34;;;;;;;66.97;44.80;;;77.70;2227.20;;;;;;5053475;28;20024;-76
2023/03/06 07:36:00;;;;;;;62.53;42.75;;;102.50;2227.20;;;;;;5054447;28;20108;-77
2023/03/06 07:38:26;;;;;;;60.17;39.90;;;102.50;2227.20;;;;;;5054425;28;20048;-79
2023/03/06 07:40:52;;;;;;;67.07;45.20;;;102.60;2227.20;;;;;;5052673;28;20151;-79
2023/03/06 07:43:18;;;;;;;64.00;36.08;;;102.60;2227.20;;;;;;5052997;28;20067;-79
2023/03/06 07:45:45;;;;;;;135.48;92.15;;;102.80;2227.20;;;;;;5053171;28;20605;-79
2023/03/06 07:48:12;;;;;;;54.60;38.10;;;102.80;2227.20;;;;;;5052848;28;20031;-78
2023/03/06 07:50:38;;;;;;;75.82;48.15;;;102.90;2227.20;;;;;;5052389;28;20128;-76
2023/03/06 07:53:04;;;;;;;51.95;36.50;;;102.80;2227.20;;;;;;5054262;28;20119;-78
2023/03/06 07:55:30;;;;;;;46.25;29.73;;;103.00;2227.20;;;;;;5052015;28;20171;-77
2023/03/06 07:57:55;;;;;;;46.10;29.58;;;103.00;2227.20;;;;;;5053597;28;20045;-77
2023/03/06 08:00:21;;;;;;;49.47;32.45;;;103.20;2227.20;;;;;;5052972;28;20032;-80
2023/03/06 08:02:48;;;;;;;48.08;31.27;;;103.30;2227.20;;;;;;5053055;28;20083;-78
2023/03/06 08:05:15;;;;;;;44.42;28.70;;;128.10;2252.80;;;;;;5052791;28;20029;-76
2023/03/06 08:07:43;;;;;;;43.25;28.10;;;128.20;2252.80;;;;;;5052701;28;20021;-79
2023/03/06 08:10:12;;;;;;;58.00;34.10;;;128.40;2252.80;;;;;;5052521;28;20536;-77
2023/03/06 08:12:37;;;;;;;44.08;28.25;;;128.50;2252.80;;;;;;5052639;28;20470;-77
2023/03/06 08:15:03;;;;;;;45.75;31.50;;;128.70;2252.80;;;;;;5052539;28;20116;-78
2023/03/06 08:17:29;;;;;;;41.65;28.65;;;128.70;2252.80;;;;;;5052366;28;20405;-78
2023/03/06 08:19:55;;;;;;;41.78;27.70;;;128.90;2252.80;;;;;;5052553;28;20021;-78
2023/03/06 08:22:21;;;;;;;53.67;33.78;;;128.90;2252.80;;;;;;5052453;28;20025;-77
2023/03/06 08:24:46;;;;;;;47.53;30.77;;;153.60;2252.80;;;;;;5052217;28;20025;-77
2023/03/06 08:27:12;;;;;;;39.60;27.95;;;153.70;2252.80;;;;;;5052393;28;20048;-80
2023/03/06 08:29:38;;;;;;;39.17;25.90;;;153.90;2252.80;;;;;;5052513;28;20032;-78
2023/03/06 08:32:04;;;;;;;36.00;24.55;;;154.00;2252.80;;;;;;5052202;28;20091;-79
2023/03/06 08:34:30;;;;;;;39.15;26.13;;;154.00;2252.80;;;;;;5052193;28;20584;-77
2023/03/06 08:36:56;;;;;;;35.50;22.48;;;154.10;2252.80;;;;;;5052367;28;20025;-75
2023/03/06 08:39:22;;;;;;;31.13;21.50;;;154.30;2252.80;;;;;;5052127;28;20032;-79
2023/03/06 08:41:48;;;;;;;31.38;22.50;;;154.50;2252.80;;;;;;5052103;28;20469;-78
2023/03/06 08:44:14;;;;;;;40.45;22.70;;;179.20;2252.80;;;;;;5052018;28;20116;-79
2023/03/06 08:46:40;;;;;;;31.33;22.55;;;179.20;2252.80;;;;;;5052151;28;20029;-77
2023/03/06 08:49:06;;;;;;;29.98;20.92;;;179.40;2252.80;;;;;;5053470;28;20049;-76
2023/03/06 08:51:32;;;;;;;32.08;21.50;;;179.50;2252.80;;;;;;5051915;28;20061;-76
2023/03/06 08:53:58;;;;;;;38.03;24.58;;;179.60;2252.80;;;;;;5054692;28;20025;-80
2023/03/06 08:56:29;;;;;;;34.00;23.90;;;179.60;2252.80;;;;;;5056320;28;20029;-76
2023/03/06 08:58:56;;;;;;;28.55;20.80;;;179.70;2252.80;;;;;;5057372;28;20441;-75
2023/03/06 09:01:27;;;;;;;32.63;21.10;;;179.80;2252.80;;;;;;5057416;28;20021;-77
2023/03/06 09:03:55;;;;;;;30.33;21.60;;;179.90;2252.80;;;;;;5056154;28;20530;-77
2023/03/06 09:06:22;;;;;;;30.42;22.77;;;180.00;2252.80;;;;;;5055112;28;20444;-77
2023/03/06 09:08:50;;;;;;;34.38;25.42;;;180.10;2252.80;;;;;;5039838;28;20095;-78
2023/03/06 09:11:16;;;;;;;31.10;23.52;;;180.10;2252.80;;;;;;5049199;28;20029;-77
2023/03/06 09:13:42;;;;;;;32.00;21.38;;;204.80;2252.80;;;;;;5039015;28;20025;-77
2023/03/06 09:16:09;;;;;;;31.13;22.13;;;205.00;2252.80;;;;;;5051482;28;20021;-75
2023/03/06 09:18:35;;;;;;;32.78;21.77;;;205.00;2252.80;;;;;;5036322;28;20546;-76
2023/03/06 09:21:02;;;;;;;33.30;22.73;;;205.10;2252.80;;;;;;5046500;28;20037;-75
2023/03/06 09:23:28;;;;;;;42.33;26.75;;;205.20;2252.80;;;;;;5055297;28;20041;-78
2023/03/06 09:25:56;;;;;;;37.10;25.70;;;205.30;2252.80;;;;;;5038139;28;20029;-74
2023/03/06 09:28:22;;;;;;;36.15;22.17;;;205.40;2252.80;;;;;;5047171;28;20470;-75
2023/03/06 09:30:48;;;;;;;32.00;21.77;;;205.50;2252.80;;;;;;5038767;28;20430;-75
2023/03/06 09:33:15;;;;;;;34.22;25.48;;;205.40;2252.80;;;;;;5049305;28;20078;-75
2023/03/06 09:36:01;;;;;;;32.28;21.52;;;205.50;2252.80;;;;;;5054818;28;20040;-74
2023/03/06 09:38:27;;;;;;;33.33;23.33;;;205.50;2252.80;;;;;;5041392;28;20028;-76
2023/03/06 09:40:59;;;;;;;34.72;22.80;;;205.50;2252.80;;;;;;5058603;28;20027;-75
2023/03/06 09:43:36;;;;;;;30.55;22.55;;;205.60;2252.80;;;;;;5043842;28;20037;-78
2023/03/06 09:46:18;;;;;;;40.13;29.30;;;205.70;2252.80;;;;;;5059600;28;20029;-75
2023/03/06 09:49:09;;;;;;;30.38;22.70;;;230.50;2252.80;;;;;;5058382;28;20048;-76
2023/03/06 09:52:21;;;;;;;35.63;21.35;;;230.60;2252.80;;;;;;5042230;28;20032;-78
2023/03/06 09:54:56;;;;;;;32.15;21.55;;;230.50;2252.80;;;;;;5035501;28;20044;-77
2023/03/06 09:57:35;;;;;;;31.08;22.63;;;230.50;2252.80;;;;;;5050041;28;20021;-76
2023/03/06 10:00:11;;;;;;;29.80;21.10;;;230.60;2252.80;;;;;;5051648;28;20037;-76
2023/03/06 10:02:51;;;;;;;27.92;20.88;;;230.60;2252.80;;;;;;5043770;28;20025;-75
2023/03/06 10:05:27;;;;;;;30.55;19.98;;;230.60;2252.80;;;;;;5054395;28;20031;-75
2023/03/06 10:08:02;;;;;;;31.50;22.27;;;230.80;2252.80;;;;;;5037681;28;20487;-76
2023/03/06 10:10:41;;;;;;;34.20;23.17;;;230.80;2252.80;;;;;;5056280;28;20425;-76
2023/03/06 10:13:23;;;;;;;36.83;27.05;;;231.00;2252.80;;;;;;5043653;28;20103;-74
2023/03/06 10:15:49;;;;;;;30.58;22.85;;;231.10;2252.80;;;;;;5050927;28;20086;-76
2023/03/06 10:18:15;;;;;;;34.67;23.13;;;231.30;2252.80;;;;;;5039482;28;20055;-78
2023/03/06 10:21:14;;;;;;;34.00;23.55;;;231.30;2252.80;;;;;;5055732;28;20021;-74
2023/03/06 10:23:43;;;;;;;33.85;22.85;;;256.00;2252.80;;;;;;5038847;28;20036;-75
2023/03/06 10:26:14;;;;;;;33.85;22.83;;;256.30;2252.80;;;;;;5050011;28;20049;-75
2023/03/06 10:28:52;;;;;;;34.90;24.17;;;256.40;2252.80;;;;;;5042842;28;20066;-74
2023/03/06 10:31:22;;;;;;;31.73;23.23;;;256.70;2252.80;;;;;;5054013;28;20083;-74
2023/03/06 10:34:07;;;;;;;30.17;22.27;;;256.60;2252.80;;;;;;5036254;28;20033;-75
2023/03/06 10:36:32;;;;;;;71.20;43.28;;;256.80;2252.80;;;;;;5034704;28;20025;-75
2023/03/06 10:38:58;;;;;;;70.40;42.47;;;256.90;2252.80;;;;;;5046661;28;20027;-75
2023/03/06 10:41:30;;;;;;;37.42;26.52;;;256.90;2252.80;;;;;;5040086;28;20107;-77
2023/03/06 10:43:58;;;;;;;45.33;34.97;;;281.60;2278.40;;;;;;5050117;28;20029;-76
2023/03/06 10:46:33;;;;;;;37.53;26.13;;;281.70;2278.40;;;;;;5040640;28;20104;-75
2023/03/06 10:49:05;;;;;;;28.98;21.60;;;281.60;2278.40;;;;;;5042292;28;20108;-75
2023/03/06 10:51:33;;;;;;;80.57;60.47;;;281.70;2278.40;;;;;;5050673;28;20079;-75
2023/03/06 10:54:15;;;;;;;43.20;31.92;;;281.90;2278.40;;;;;;5037157;28;20021;-75
2023/03/06 10:56:43;;;;;;;32.28;23.13;;;281.90;2278.40;;;;;;5046433;28;20018;-74
2023/03/06 10:59:15;;;;;;;29.83;22.25;;;282.10;2278.40;;;;;;5046116;28;20029;-75
2023/03/06 11:01:46;;;;;;;29.73;22.50;;;282.10;2278.40;;;;;;5036862;28;20038;-75
2023/03/06 11:04:32;;;;;;;30.15;21.40;;;282.20;2278.40;;;;;;5054617;28;20029;-76
2023/03/06 11:07:14;;;;;;;27.23;19.17;;;307.20;2304.00;;;;;;5042191;28;20029;-75
2023/03/06 11:10:03;;;;;;;27.40;20.98;;;307.20;2304.00;;;;;;5049777;28;20044;-75
2023/03/06 11:12:38;;;;;;;28.70;23.90;;;307.20;2304.00;;;;;;5040478;28;20040;-75
2023/03/06 11:15:20;;;;;;;34.90;26.10;;;307.50;2304.00;;;;;;5040894;28;20454;-74
2023/03/06 11:17:56;;;;;;;30.95;22.55;;;;;;;;;;5051075;28;20028;-74
2023/03/06 11:20:34;;;;;;;35.65;23.23;;;332.80;2329.60;;;;;;5039591;28;20025;-75
2023/03/06 11:23:23;;;;;;;31.88;24.83;;;332.80;2329.60;;;;;;5041642;28;20025;-74
2023/03/06 11:25:52;;;;;;;29.20;21.15;;;332.90;2329.60;;;;;;5050379;28;20657;-76
2023/03/06 11:28:26;;;;;;;29.90;20.83;;;333.10;2329.60;;;;;;5038983;28;20021;-75
2023/03/06 11:31:04;;;;;;;27.38;20.23;;;332.90;2329.60;;;;;;5042548;28;20563;-75
2023/03/06 11:33:48;;;;;;;26.52;19.92;;;333.20;2329.60;;;;;;5049776;28;20025;-75
2023/03/06 11:36:32;;;;;;;31.52;21.52;;;333.50;2329.60;;;;;;5038281;28;20017;-77
2023/03/06 11:38:58;;;;;;;27.48;18.90;;;;;;;;;;5052513;28;20131;-76
2023/03/06 11:41:52;;;;;;;27.17;18.95;;;358.70;2329.60;;;;;;5038987;28;20021;-75
2023/03/06 11:44:36;;;;;;;29.45;22.13;;;358.80;2329.60;;;;;;5052719;28;20063;-75
2023/03/06 11:47:13;;;;;;;28.17;20.20;;;359.00;2329.60;;;;;;5052720;28;20029;-75
2023/03/06 11:50:04;;;;;;;32.30;22.48;;;359.20;2278.40;;;;;;5035818;28;20025;-76
2023/03/06 11:52:46;;;;;;;24.75;18.27;;;384.20;2252.80;;;;;;5049773;28;20382;-74
2023/03/06 11:55:15;;;;;;;22.52;18.67;;;;;;;;;;5038396;28;20052;-75
2023/03/06 11:57:55;;;;;;;23.23;17.65;;;384.60;2176.00;;;;;;5049618;28;20071;-77
2023/03/06 12:00:47;;;;;;;25.02;16.52;;;384.90;2201.60;;;;;;5049126;28;20021;-74
2023/03/06 12:03:24;;;;;;;19.02;14.85;;;384.80;2176.00;;;;;;5051268;28;20032;-75
2023/03/06 12:06:22;;;;;;;25.02;18.20;;;384.80;2150.40;;;;;;5035863;28;20033;-77
2023/03/06 12:09:21;;;;;;;22.10;15.48;;;409.60;2201.60;;;;;;5041495;28;20387;-74
2023/03/06 12:11:49;;;;;;;19.88;14.45;;;384.90;2176.00;;;;;;5048558;28;20390;-77
2023/03/06 12:14:52;;;;;;;22.67;17.25;;;384.70;2099.20;;;;;;5037849;28;20021;-76
2023/03/06 12:17:49;;;;;;;30.77;20.83;;;384.90;2150.40;;;;;;5039188;28;20052;-75